sensor_id;sensor_type;location;lat;lon;timestamp;P1;durP1;ratioP1;P2;durP2;ratioP2
803;SDS011;25687;49.976;8.240;2023-02-17T00:00:55;30.67;;;25.40;;
803;SDS011;25687;49.976;8.240;2023-02-17T00:03:20;28.67;;;25.10;;
803;SDS011;25687;49.976;8.240;2023-02-17T00:05:46;28.77;;;24.93;;
803;SDS011;25687;49.976;8.240;2023-02-17T00:08:11;30.17;;;26.13;;
803;SDS011;25687;49.976;8.240;2023-02-17T00:10:36;31.30;;;25.77;;
803;SDS011;25687;49.976;8.240;2023-02-17T00:13:02;28.40;;;25.30;;
803;SDS011;25687;49.976;8.240;2023-02-17T00:15:28;31.13;;;25.90;;
803;SDS011;25687;49.976;8.240;2023-02-17T00:17:53;31.00;;;25.40;;
803;SDS011;25687;49.976;8.240;2023-02-17T00:20:19;28.43;;;25.07;;
803;SDS011;25687;49.976;8.240;2023-02-17T00:22:44;32.47;;;26.97;;
803;SDS011;25687;49.976;8.240;2023-02-17T00:25:09;33.90;;;26.80;;
803;SDS011;25687;49.976;8.240;2023-02-17T00:27:34;32.60;;;26.40;;
803;SDS011;25687;49.976;8.240;2023-02-17T00:30:00;36.93;;;27.20;;
803;SDS011;25687;49.976;8.240;2023-02-17T00:32:25;39.00;;;28.37;;
803;SDS011;25687;49.976;8.240;2023-02-17T00:34:51;35.33;;;26.40;;
803;SDS011;25687;49.976;8.240;2023-02-17T00:37:16;34.73;;;28.83;;
803;SDS011;25687;49.976;8.240;2023-02-17T00:39:42;37.53;;;28.83;;
803;SDS011;25687;49.976;8.240;2023-02-17T00:42:07;35.97;;;27.43;;
803;SDS011;25687;49.976;8.240;2023-02-17T00:44:33;32.53;;;27.53;;
803;SDS011;25687;49.976;8.240;2023-02-17T00:46:58;34.43;;;27.13;;
803;SDS011;25687;49.976;8.240;2023-02-17T00:49:24;33.07;;;26.77;;
803;SDS011;25687;49.976;8.240;2023-02-17T00:51:51;31.00;;;24.37;;
803;SDS011;25687;49.976;8.240;2023-02-17T00:54:17;30.60;;;25.67;;
803;SDS011;25687;49.976;8.240;2023-02-17T00:56:43;33.43;;;26.23;;
803;SDS011;25687;49.976;8.240;2023-02-17T00:59:08;31.60;;;25.57;;
803;SDS011;25687;49.976;8.240;2023-02-17T01:01:34;33.00;;;25.53;;
803;SDS011;25687;49.976;8.240;2023-02-17T01:03:59;30.80;;;24.87;;
803;SDS011;25687;49.976;8.240;2023-02-17T01:06:26;33.67;;;25.83;;
803;SDS011;25687;49.976;8.240;2023-02-17T01:08:53;33.93;;;25.33;;
803;SDS011;25687;49.976;8.240;2023-02-17T01:11:25;33.50;;;25.23;;
803;SDS011;25687;49.976;8.240;2023-02-17T01:13:53;31.80;;;23.57;;
803;SDS011;25687;49.976;8.240;2023-02-17T01:16:21;28.97;;;23.87;;
803;SDS011;25687;49.976;8.240;2023-02-17T01:18:49;29.77;;;24.90;;
803;SDS011;25687;49.976;8.240;2023-02-17T01:21:18;26.83;;;23.73;;
803;SDS011;25687;49.976;8.240;2023-02-17T01:23:49;27.67;;;23.63;;
803;SDS011;25687;49.976;8.240;2023-02-17T01:26:16;29.17;;;23.60;;
803;SDS011;25687;49.976;8.240;2023-02-17T01:28:43;27.97;;;23.20;;
803;SDS011;25687;49.976;8.240;2023-02-17T01:31:09;30.17;;;24.10;;
803;SDS011;25687;49.976;8.240;2023-02-17T01:33:35;27.53;;;22.63;;
803;SDS011;25687;49.976;8.240;2023-02-17T01:36:02;28.17;;;22.73;;
803;SDS011;25687;49.976;8.240;2023-02-17T01:38:29;27.10;;;22.63;;
803;SDS011;25687;49.976;8.240;2023-02-17T01:40:54;24.03;;;20.43;;
803;SDS011;25687;49.976;8.240;2023-02-17T01:43:20;25.03;;;21.07;;
803;SDS011;25687;49.976;8.240;2023-02-17T01:45:55;26.27;;;21.77;;
803;SDS011;25687;49.976;8.240;2023-02-17T01:48:32;28.30;;;22.10;;
803;SDS011;25687;49.976;8.240;2023-02-17T01:51:30;24.83;;;21.30;;
803;SDS011;25687;49.976;8.240;2023-02-17T01:54:03;21.57;;;16.60;;
803;SDS011;25687;49.976;8.240;2023-02-17T01:56:33;21.33;;;14.97;;
803;SDS011;25687;49.976;8.240;2023-02-17T01:59:03;19.00;;;14.50;;
803;SDS011;25687;49.976;8.240;2023-02-17T02:01:32;16.83;;;13.20;;
803;SDS011;25687;49.976;8.240;2023-02-17T02:03:59;18.03;;;12.20;;
803;SDS011;25687;49.976;8.240;2023-02-17T02:06:27;18.13;;;12.03;;
803;SDS011;25687;49.976;8.240;2023-02-17T02:08:55;16.47;;;11.63;;
803;SDS011;25687;49.976;8.240;2023-02-17T02:11:26;13.50;;;11.93;;
803;SDS011;25687;49.976;8.240;2023-02-17T02:13:51;14.23;;;11.70;;
803;SDS011;25687;49.976;8.240;2023-02-17T02:16:19;15.13;;;11.73;;
803;SDS011;25687;49.976;8.240;2023-02-17T02:22:02;13.50;;;11.10;;
803;SDS011;25687;49.976;8.240;2023-02-17T02:36:16;12.97;;;11.03;;
803;SDS011;25687;49.976;8.240;2023-02-17T02:41:28;11.30;;;10.10;;
803;SDS011;25687;49.976;8.240;2023-02-17T02:43:57;13.53;;;11.20;;
803;SDS011;25687;49.976;8.240;2023-02-17T02:46:23;12.90;;;10.33;;
803;SDS011;25687;49.976;8.240;2023-02-17T02:48:48;13.03;;;10.40;;
803;SDS011;25687;49.976;8.240;2023-02-17T02:51:17;15.00;;;10.97;;
803;SDS011;25687;49.976;8.240;2023-02-17T02:53:54;13.67;;;11.53;;
803;SDS011;25687;49.976;8.240;2023-02-17T03:01:53;12.17;;;10.87;;
803;SDS011;25687;49.976;8.240;2023-02-17T03:04:28;13.67;;;10.70;;
803;SDS011;25687;49.976;8.240;2023-02-17T03:07:20;12.50;;;10.27;;
803;SDS011;25687;49.976;8.240;2023-02-17T03:09:52;14.53;;;10.80;;
803;SDS011;25687;49.976;8.240;2023-02-17T03:12:20;11.83;;;10.63;;
803;SDS011;25687;49.976;8.240;2023-02-17T03:14:47;12.27;;;10.73;;
803;SDS011;25687;49.976;8.240;2023-02-17T03:17:15;11.27;;;9.97;;
803;SDS011;25687;49.976;8.240;2023-02-17T03:19:40;10.30;;;9.23;;
803;SDS011;25687;49.976;8.240;2023-02-17T03:22:08;10.10;;;9.10;;
803;SDS011;25687;49.976;8.240;2023-02-17T03:24:41;11.13;;;8.07;;
803;SDS011;25687;49.976;8.240;2023-02-17T03:27:06;10.70;;;8.73;;
803;SDS011;25687;49.976;8.240;2023-02-17T03:29:31;11.70;;;9.00;;
803;SDS011;25687;49.976;8.240;2023-02-17T03:31:57;10.40;;;8.60;;
803;SDS011;25687;49.976;8.240;2023-02-17T03:34:22;11.87;;;9.00;;
803;SDS011;25687;49.976;8.240;2023-02-17T03:36:48;9.53;;;8.43;;
803;SDS011;25687;49.976;8.240;2023-02-17T03:39:13;11.13;;;7.97;;
803;SDS011;25687;49.976;8.240;2023-02-17T03:41:39;9.47;;;7.93;;
803;SDS011;25687;49.976;8.240;2023-02-17T03:44:04;13.57;;;8.13;;
803;SDS011;25687;49.976;8.240;2023-02-17T03:46:29;10.50;;;8.37;;
803;SDS011;25687;49.976;8.240;2023-02-17T03:48:54;8.97;;;7.53;;
803;SDS011;25687;49.976;8.240;2023-02-17T03:51:21;10.07;;;7.70;;
803;SDS011;25687;49.976;8.240;2023-02-17T03:53:48;11.60;;;8.10;;
803;SDS011;25687;49.976;8.240;2023-02-17T03:56:14;10.73;;;8.10;;
803;SDS011;25687;49.976;8.240;2023-02-17T03:58:40;9.30;;;8.30;;
803;SDS011;25687;49.976;8.240;2023-02-17T04:01:06;8.40;;;7.60;;
803;SDS011;25687;49.976;8.240;2023-02-17T04:03:34;9.13;;;8.17;;
803;SDS011;25687;49.976;8.240;2023-02-17T04:06:01;8.90;;;8.00;;
803;SDS011;25687;49.976;8.240;2023-02-17T04:08:26;10.27;;;8.37;;
803;SDS011;25687;49.976;8.240;2023-02-17T04:10:52;10.93;;;8.17;;
803;SDS011;25687;49.976;8.240;2023-02-17T04:13:20;9.47;;;7.63;;
803;SDS011;25687;49.976;8.240;2023-02-17T04:15:46;10.30;;;7.93;;
803;SDS011;25687;49.976;8.240;2023-02-17T04:18:11;11.47;;;7.63;;
803;SDS011;25687;49.976;8.240;2023-02-17T04:20:36;10.17;;;8.43;;
803;SDS011;25687;49.976;8.240;2023-02-17T04:23:01;8.13;;;7.33;;
803;SDS011;25687;49.976;8.240;2023-02-17T04:25:27;8.63;;;7.33;;
803;SDS011;25687;49.976;8.240;2023-02-17T04:27:52;8.60;;;7.27;;
803;SDS011;25687;49.976;8.240;2023-02-17T04:30:17;8.77;;;7.07;;
803;SDS011;25687;49.976;8.240;2023-02-17T04:32:43;7.73;;;7.03;;
803;SDS011;25687;49.976;8.240;2023-02-17T04:35:08;10.17;;;6.70;;
803;SDS011;25687;49.976;8.240;2023-02-17T04:37:33;7.90;;;7.10;;
803;SDS011;25687;49.976;8.240;2023-02-17T04:39:58;8.33;;;7.53;;
803;SDS011;25687;49.976;8.240;2023-02-17T04:42:24;7.80;;;7.00;;
803;SDS011;25687;49.976;8.240;2023-02-17T04:44:49;7.07;;;6.37;;
803;SDS011;25687;49.976;8.240;2023-02-17T04:47:14;6.70;;;6.10;;
803;SDS011;25687;49.976;8.240;2023-02-17T04:49:40;7.13;;;6.43;;
803;SDS011;25687;49.976;8.240;2023-02-17T04:52:05;8.63;;;7.03;;
803;SDS011;25687;49.976;8.240;2023-02-17T04:54:30;7.87;;;6.57;;
803;SDS011;25687;49.976;8.240;2023-02-17T04:56:56;9.40;;;6.53;;
803;SDS011;25687;49.976;8.240;2023-02-17T04:59:21;7.13;;;5.70;;
803;SDS011;25687;49.976;8.240;2023-02-17T05:01:46;6.67;;;6.07;;
803;SDS011;25687;49.976;8.240;2023-02-17T05:04:11;6.40;;;5.80;;
803;SDS011;25687;49.976;8.240;2023-02-17T05:06:37;7.37;;;6.00;;
803;SDS011;25687;49.976;8.240;2023-02-17T05:09:02;6.03;;;5.27;;
803;SDS011;25687;49.976;8.240;2023-02-17T05:11:30;6.80;;;5.90;;
803;SDS011;25687;49.976;8.240;2023-02-17T05:14:05;6.00;;;5.40;;
803;SDS011;25687;49.976;8.240;2023-02-17T05:16:30;5.63;;;5.13;;
803;SDS011;25687;49.976;8.240;2023-02-17T05:18:55;5.73;;;5.17;;
803;SDS011;25687;49.976;8.240;2023-02-17T05:21:20;5.50;;;5.00;;
803;SDS011;25687;49.976;8.240;2023-02-17T05:23:46;5.70;;;5.20;;
803;SDS011;25687;49.976;8.240;2023-02-17T05:26:11;5.20;;;4.70;;
803;SDS011;25687;49.976;8.240;2023-02-17T05:28:36;4.97;;;4.57;;
803;SDS011;25687;49.976;8.240;2023-02-17T05:31:02;6.83;;;5.37;;
803;SDS011;25687;49.976;8.240;2023-02-17T05:33:28;6.07;;;5.07;;
803;SDS011;25687;49.976;8.240;2023-02-17T05:35:54;5.50;;;5.00;;
803;SDS011;25687;49.976;8.240;2023-02-17T05:38:19;5.40;;;4.90;;
803;SDS011;25687;49.976;8.240;2023-02-17T05:40:45;5.50;;;5.00;;
803;SDS011;25687;49.976;8.240;2023-02-17T05:43:10;6.17;;;4.93;;
803;SDS011;25687;49.976;8.240;2023-02-17T05:45:35;6.70;;;4.63;;
803;SDS011;25687;49.976;8.240;2023-02-17T05:48:01;5.23;;;4.73;;
803;SDS011;25687;49.976;8.240;2023-02-17T05:50:26;5.50;;;5.00;;
803;SDS011;25687;49.976;8.240;2023-02-17T05:52:51;4.70;;;4.23;;
803;SDS011;25687;49.976;8.240;2023-02-17T05:55:16;5.93;;;4.33;;
803;SDS011;25687;49.976;8.240;2023-02-17T05:57:42;5.10;;;4.60;;
803;SDS011;25687;49.976;8.240;2023-02-17T06:00:07;6.10;;;4.90;;
803;SDS011;25687;49.976;8.240;2023-02-17T06:02:33;5.30;;;4.90;;
803;SDS011;25687;49.976;8.240;2023-02-17T06:04:58;5.63;;;4.53;;
803;SDS011;25687;49.976;8.240;2023-02-17T06:07:24;5.27;;;4.40;;
803;SDS011;25687;49.976;8.240;2023-02-17T06:09:49;4.97;;;4.50;;
803;SDS011;25687;49.976;8.240;2023-02-17T06:12:14;4.80;;;4.40;;
803;SDS011;25687;49.976;8.240;2023-02-17T06:14:39;5.83;;;4.63;;
803;SDS011;25687;49.976;8.240;2023-02-17T06:17:05;6.20;;;4.80;;
803;SDS011;25687;49.976;8.240;2023-02-17T06:19:30;5.03;;;4.63;;
803;SDS011;25687;49.976;8.240;2023-02-17T06:21:55;4.93;;;4.10;;
803;SDS011;25687;49.976;8.240;2023-02-17T06:24:21;5.63;;;4.30;;
803;SDS011;25687;49.976;8.240;2023-02-17T06:26:47;4.50;;;3.80;;
803;SDS011;25687;49.976;8.240;2023-02-17T06:29:12;5.67;;;4.43;;
803;SDS011;25687;49.976;8.240;2023-02-17T06:31:37;7.07;;;4.37;;
803;SDS011;25687;49.976;8.240;2023-02-17T06:34:03;4.40;;;4.00;;
803;SDS011;25687;49.976;8.240;2023-02-17T06:36:28;4.23;;;3.83;;
803;SDS011;25687;49.976;8.240;2023-02-17T06:38:53;4.07;;;3.67;;
803;SDS011;25687;49.976;8.240;2023-02-17T06:41:18;4.10;;;3.80;;
803;SDS011;25687;49.976;8.240;2023-02-17T06:43:44;4.57;;;4.13;;
803;SDS011;25687;49.976;8.240;2023-02-17T06:46:10;4.50;;;4.10;;
803;SDS011;25687;49.976;8.240;2023-02-17T06:48:35;3.77;;;3.47;;
803;SDS011;25687;49.976;8.240;2023-02-17T06:51:00;4.03;;;3.63;;
803;SDS011;25687;49.976;8.240;2023-02-17T06:53:26;4.30;;;3.60;;
803;SDS011;25687;49.976;8.240;2023-02-17T06:55:51;4.17;;;3.77;;
803;SDS011;25687;49.976;8.240;2023-02-17T06:58:17;4.60;;;3.60;;
803;SDS011;25687;49.976;8.240;2023-02-17T07:00:42;3.60;;;3.30;;
803;SDS011;25687;49.976;8.240;2023-02-17T07:03:07;3.67;;;3.37;;
803;SDS011;25687;49.976;8.240;2023-02-17T07:05:33;3.63;;;3.33;;
803;SDS011;25687;49.976;8.240;2023-02-17T07:08:00;3.90;;;3.43;;
803;SDS011;25687;49.976;8.240;2023-02-17T07:10:25;4.17;;;3.77;;
803;SDS011;25687;49.976;8.240;2023-02-17T07:12:50;3.90;;;3.33;;
803;SDS011;25687;49.976;8.240;2023-02-17T07:15:16;6.50;;;3.67;;
803;SDS011;25687;49.976;8.240;2023-02-17T07:17:41;6.10;;;3.47;;
803;SDS011;25687;49.976;8.240;2023-02-17T07:20:07;5.60;;;2.97;;
803;SDS011;25687;49.976;8.240;2023-02-17T07:22:33;4.43;;;3.30;;
803;SDS011;25687;49.976;8.240;2023-02-17T07:24:58;4.37;;;3.77;;
803;SDS011;25687;49.976;8.240;2023-02-17T07:27:23;3.90;;;3.37;;
803;SDS011;25687;49.976;8.240;2023-02-17T07:29:49;3.50;;;3.20;;
803;SDS011;25687;49.976;8.240;2023-02-17T07:32:14;4.00;;;3.57;;
803;SDS011;25687;49.976;8.240;2023-02-17T07:34:40;3.63;;;2.77;;
803;SDS011;25687;49.976;8.240;2023-02-17T07:37:06;3.60;;;3.30;;
803;SDS011;25687;49.976;8.240;2023-02-17T07:39:32;4.20;;;3.80;;
803;SDS011;25687;49.976;8.240;2023-02-17T07:41:58;3.20;;;2.90;;
803;SDS011;25687;49.976;8.240;2023-02-17T07:44:25;3.30;;;3.03;;
803;SDS011;25687;49.976;8.240;2023-02-17T07:46:51;3.70;;;3.40;;
803;SDS011;25687;49.976;8.240;2023-02-17T07:49:17;3.73;;;3.37;;
803;SDS011;25687;49.976;8.240;2023-02-17T07:51:42;3.87;;;3.40;;
803;SDS011;25687;49.976;8.240;2023-02-17T07:54:08;3.77;;;3.37;;
803;SDS011;25687;49.976;8.240;2023-02-17T07:56:33;3.90;;;3.60;;
803;SDS011;25687;49.976;8.240;2023-02-17T07:58:58;6.03;;;3.57;;
803;SDS011;25687;49.976;8.240;2023-02-17T08:01:24;8.33;;;3.63;;
803;SDS011;25687;49.976;8.240;2023-02-17T08:03:50;9.50;;;3.80;;
803;SDS011;25687;49.976;8.240;2023-02-17T08:06:20;4.77;;;3.43;;
803;SDS011;25687;49.976;8.240;2023-02-17T08:08:47;4.97;;;4.17;;
803;SDS011;25687;49.976;8.240;2023-02-17T08:11:32;5.73;;;4.20;;
803;SDS011;25687;49.976;8.240;2023-02-17T08:14:17;6.63;;;3.83;;
803;SDS011;25687;49.976;8.240;2023-02-17T08:16:44;4.10;;;3.70;;
803;SDS011;25687;49.976;8.240;2023-02-17T08:19:09;4.30;;;3.97;;
803;SDS011;25687;49.976;8.240;2023-02-17T08:21:35;4.63;;;4.23;;
803;SDS011;25687;49.976;8.240;2023-02-17T08:24:00;4.67;;;4.27;;
803;SDS011;25687;49.976;8.240;2023-02-17T08:26:25;9.17;;;5.00;;
803;SDS011;25687;49.976;8.240;2023-02-17T08:28:51;5.47;;;4.60;;
803;SDS011;25687;49.976;8.240;2023-02-17T08:31:21;15.77;;;5.07;;
803;SDS011;25687;49.976;8.240;2023-02-17T08:33:49;7.87;;;4.83;;
803;SDS011;25687;49.976;8.240;2023-02-17T08:36:15;7.13;;;4.97;;
803;SDS011;25687;49.976;8.240;2023-02-17T08:38:41;8.10;;;4.27;;
803;SDS011;25687;49.976;8.240;2023-02-17T08:41:13;9.07;;;4.60;;
803;SDS011;25687;49.976;8.240;2023-02-17T08:43:40;7.77;;;4.67;;
803;SDS011;25687;49.976;8.240;2023-02-17T08:46:07;10.77;;;5.60;;
803;SDS011;25687;49.976;8.240;2023-02-17T08:48:33;6.97;;;4.87;;
803;SDS011;25687;49.976;8.240;2023-02-17T08:50:58;6.50;;;5.20;;
803;SDS011;25687;49.976;8.240;2023-02-17T08:53:23;4.70;;;4.20;;
803;SDS011;25687;49.976;8.240;2023-02-17T08:55:49;5.10;;;4.37;;
803;SDS011;25687;49.976;8.240;2023-02-17T08:58:14;5.20;;;4.70;;
803;SDS011;25687;49.976;8.240;2023-02-17T09:00:39;10.30;;;4.83;;
803;SDS011;25687;49.976;8.240;2023-02-17T09:03:04;5.20;;;4.80;;
803;SDS011;25687;49.976;8.240;2023-02-17T09:05:31;8.13;;;5.27;;
803;SDS011;25687;49.976;8.240;2023-02-17T09:07:57;6.27;;;5.30;;
803;SDS011;25687;49.976;8.240;2023-02-17T09:10:22;6.17;;;5.43;;
803;SDS011;25687;49.976;8.240;2023-02-17T09:12:47;6.10;;;5.23;;
803;SDS011;25687;49.976;8.240;2023-02-17T09:15:13;6.07;;;5.45;;
803;SDS011;25687;49.976;8.240;2023-02-17T09:17:39;6.40;;;5.87;;
803;SDS011;25687;49.976;8.240;2023-02-17T09:20:05;7.53;;;5.67;;
803;SDS011;25687;49.976;8.240;2023-02-17T09:22:32;5.43;;;4.93;;
803;SDS011;25687;49.976;8.240;2023-02-17T09:24:58;6.38;;;5.80;;
803;SDS011;25687;49.976;8.240;2023-02-17T09:27:23;5.73;;;5.23;;
803;SDS011;25687;49.976;8.240;2023-02-17T09:29:49;6.80;;;5.33;;
803;SDS011;25687;49.976;8.240;2023-02-17T09:32:14;5.67;;;5.17;;
803;SDS011;25687;49.976;8.240;2023-02-17T09:34:39;5.77;;;5.27;;
803;SDS011;25687;49.976;8.240;2023-02-17T09:37:09;5.43;;;4.93;;
803;SDS011;25687;49.976;8.240;2023-02-17T09:39:36;4.93;;;4.53;;
803;SDS011;25687;49.976;8.240;2023-02-17T09:42:01;4.67;;;4.27;;
803;SDS011;25687;49.976;8.240;2023-02-17T09:44:31;7.30;;;5.13;;
803;SDS011;25687;49.976;8.240;2023-02-17T09:49:51;5.07;;;4.40;;
803;SDS011;25687;49.976;8.240;2023-02-17T09:55:28;4.67;;;3.43;;
803;SDS011;25687;49.976;8.240;2023-02-17T09:57:58;3.83;;;3.43;;
803;SDS011;25687;49.976;8.240;2023-02-17T10:00:31;3.23;;;3.03;;
803;SDS011;25687;49.976;8.240;2023-02-17T10:05:33;3.33;;;3.03;;
803;SDS011;25687;49.976;8.240;2023-02-17T10:08:06;2.90;;;2.70;;
803;SDS011;25687;49.976;8.240;2023-02-17T10:10:38;2.80;;;2.60;;
803;SDS011;25687;49.976;8.240;2023-02-17T10:13:10;4.00;;;3.17;;
803;SDS011;25687;49.976;8.240;2023-02-17T10:15:39;2.80;;;2.60;;
803;SDS011;25687;49.976;8.240;2023-02-17T10:20:57;3.15;;;2.95;;
803;SDS011;25687;49.976;8.240;2023-02-17T10:23:26;3.90;;;2.87;;
803;SDS011;25687;49.976;8.240;2023-02-17T10:31:11;2.97;;;2.75;;
803;SDS011;25687;49.976;8.240;2023-02-17T10:34:02;2.87;;;2.63;;
803;SDS011;25687;49.976;8.240;2023-02-17T10:39:25;3.67;;;2.83;;
803;SDS011;25687;49.976;8.240;2023-02-17T10:41:56;3.10;;;2.80;;
803;SDS011;25687;49.976;8.240;2023-02-17T10:44:22;2.27;;;2.07;;
803;SDS011;25687;49.976;8.240;2023-02-17T10:46:49;2.67;;;2.47;;
803;SDS011;25687;49.976;8.240;2023-02-17T10:49:27;2.73;;;2.50;;
803;SDS011;25687;49.976;8.240;2023-02-17T10:54:53;2.57;;;2.37;;
803;SDS011;25687;49.976;8.240;2023-02-17T10:57:23;2.53;;;2.33;;
803;SDS011;25687;49.976;8.240;2023-02-17T10:59:54;3.03;;;2.60;;
803;SDS011;25687;49.976;8.240;2023-02-17T11:05:18;2.60;;;2.40;;
803;SDS011;25687;49.976;8.240;2023-02-17T11:07:44;2.47;;;2.27;;
803;SDS011;25687;49.976;8.240;2023-02-17T11:16:00;2.37;;;2.17;;
803;SDS011;25687;49.976;8.240;2023-02-17T11:18:27;2.67;;;2.47;;
803;SDS011;25687;49.976;8.240;2023-02-17T11:20:59;2.20;;;2.10;;
803;SDS011;25687;49.976;8.240;2023-02-17T11:23:26;2.13;;;1.80;;
803;SDS011;25687;49.976;8.240;2023-02-17T11:25:56;2.30;;;2.10;;
803;SDS011;25687;49.976;8.240;2023-02-17T11:28:26;2.40;;;2.20;;
803;SDS011;25687;49.976;8.240;2023-02-17T11:30:56;2.40;;;2.20;;
803;SDS011;25687;49.976;8.240;2023-02-17T11:33:28;1.90;;;1.80;;
803;SDS011;25687;49.976;8.240;2023-02-17T11:35:58;3.37;;;2.10;;
803;SDS011;25687;49.976;8.240;2023-02-17T11:38:25;2.20;;;2.10;;
803;SDS011;25687;49.976;8.240;2023-02-17T11:40:57;2.37;;;2.17;;
803;SDS011;25687;49.976;8.240;2023-02-17T11:43:25;2.30;;;2.10;;
803;SDS011;25687;49.976;8.240;2023-02-17T11:45:54;2.63;;;2.20;;
803;SDS011;25687;49.976;8.240;2023-02-17T12:04:24;3.00;;;2.10;;
803;SDS011;25687;49.976;8.240;2023-02-17T12:07:03;3.23;;;2.40;;
803;SDS011;25687;49.976;8.240;2023-02-17T12:09:36;3.70;;;2.83;;
803;SDS011;25687;49.976;8.240;2023-02-17T12:12:21;2.80;;;2.60;;
803;SDS011;25687;49.976;8.240;2023-02-17T12:15:05;2.43;;;2.23;;
803;SDS011;25687;49.976;8.240;2023-02-17T12:20:34;2.72;;;2.53;;
803;SDS011;25687;49.976;8.240;2023-02-17T12:29:08;3.33;;;2.13;;
803;SDS011;25687;49.976;8.240;2023-02-17T12:31:51;2.27;;;2.07;;
803;SDS011;25687;49.976;8.240;2023-02-17T12:34:27;2.00;;;1.90;;
803;SDS011;25687;49.976;8.240;2023-02-17T12:36:56;2.93;;;1.90;;
803;SDS011;25687;49.976;8.240;2023-02-17T12:39:41;2.07;;;1.73;;
803;SDS011;25687;49.976;8.240;2023-02-17T12:42:16;1.97;;;1.77;;
803;SDS011;25687;49.976;8.240;2023-02-17T12:44:50;2.17;;;1.67;;
803;SDS011;25687;49.976;8.240;2023-02-17T12:49:50;1.57;;;1.47;;
803;SDS011;25687;49.976;8.240;2023-02-17T12:52:27;2.47;;;2.17;;
803;SDS011;25687;49.976;8.240;2023-02-17T12:54:57;1.50;;;1.40;;
803;SDS011;25687;49.976;8.240;2023-02-17T13:00:28;2.00;;;1.77;;
803;SDS011;25687;49.976;8.240;2023-02-17T13:03:02;2.73;;;1.50;;
803;SDS011;25687;49.976;8.240;2023-02-17T13:05:30;1.60;;;1.50;;
803;SDS011;25687;49.976;8.240;2023-02-17T13:11:00;1.83;;;1.50;;
803;SDS011;25687;49.976;8.240;2023-02-17T13:13:29;5.03;;;1.60;;
803;SDS011;25687;49.976;8.240;2023-02-17T13:18:37;2.47;;;1.77;;
803;SDS011;25687;49.976;8.240;2023-02-17T13:27:18;1.40;;;1.30;;
803;SDS011;25687;49.976;8.240;2023-02-17T13:30:07;2.03;;;1.73;;
803;SDS011;25687;49.976;8.240;2023-02-17T13:32:37;1.95;;;1.73;;
803;SDS011;25687;49.976;8.240;2023-02-17T13:35:06;2.67;;;1.50;;
803;SDS011;25687;49.976;8.240;2023-02-17T13:37:53;2.70;;;1.47;;
803;SDS011;25687;49.976;8.240;2023-02-17T13:45:28;2.00;;;1.70;;
803;SDS011;25687;49.976;8.240;2023-02-17T13:47:59;3.00;;;1.40;;
803;SDS011;25687;49.976;8.240;2023-02-17T13:50:36;2.13;;;1.60;;
803;SDS011;25687;49.976;8.240;2023-02-17T13:53:24;1.30;;;1.20;;
803;SDS011;25687;49.976;8.240;2023-02-17T13:55:55;0.90;;;0.90;;
803;SDS011;25687;49.976;8.240;2023-02-17T13:58:31;1.50;;;1.33;;
803;SDS011;25687;49.976;8.240;2023-02-17T14:00:59;1.10;;;0.93;;
803;SDS011;25687;49.976;8.240;2023-02-17T14:03:27;3.40;;;0.90;;
803;SDS011;25687;49.976;8.240;2023-02-17T14:05:55;0.70;;;0.70;;
803;SDS011;25687;49.976;8.240;2023-02-17T14:08:32;1.80;;;1.10;;
803;SDS011;25687;49.976;8.240;2023-02-17T14:11:02;1.33;;;1.10;;
803;SDS011;25687;49.976;8.240;2023-02-17T14:13:49;2.50;;;0.90;;
803;SDS011;25687;49.976;8.240;2023-02-17T14:16:26;1.90;;;0.90;;
803;SDS011;25687;49.976;8.240;2023-02-17T14:19:07;1.00;;;1.00;;
803;SDS011;25687;49.976;8.240;2023-02-17T14:21:56;2.17;;;0.80;;
803;SDS011;25687;49.976;8.240;2023-02-17T14:24:25;3.47;;;1.10;;
803;SDS011;25687;49.976;8.240;2023-02-17T14:26:57;1.10;;;1.00;;
803;SDS011;25687;49.976;8.240;2023-02-17T14:29:24;5.82;;;0.90;;
803;SDS011;25687;49.976;8.240;2023-02-17T14:31:51;2.37;;;1.10;;
803;SDS011;25687;49.976;8.240;2023-02-17T14:34:30;1.30;;;1.10;;
803;SDS011;25687;49.976;8.240;2023-02-17T14:37:17;1.20;;;1.10;;
803;SDS011;25687;49.976;8.240;2023-02-17T14:39:46;0.93;;;0.90;;
803;SDS011;25687;49.976;8.240;2023-02-17T14:42:11;1.33;;;0.90;;
803;SDS011;25687;49.976;8.240;2023-02-17T14:44:37;1.10;;;1.00;;
803;SDS011;25687;49.976;8.240;2023-02-17T14:47:05;1.10;;;1.00;;
803;SDS011;25687;49.976;8.240;2023-02-17T14:49:31;1.33;;;1.23;;
803;SDS011;25687;49.976;8.240;2023-02-17T14:51:56;1.27;;;1.17;;
803;SDS011;25687;49.976;8.240;2023-02-17T14:54:21;1.37;;;1.13;;
803;SDS011;25687;49.976;8.240;2023-02-17T14:57:05;1.30;;;1.10;;
803;SDS011;25687;49.976;8.240;2023-02-17T14:59:32;1.30;;;1.20;;
803;SDS011;25687;49.976;8.240;2023-02-17T15:01:58;1.90;;;1.60;;
803;SDS011;25687;49.976;8.240;2023-02-17T15:04:23;1.43;;;1.00;;
803;SDS011;25687;49.976;8.240;2023-02-17T15:06:49;2.77;;;1.23;;
803;SDS011;25687;49.976;8.240;2023-02-17T15:09:19;1.63;;;1.30;;
803;SDS011;25687;49.976;8.240;2023-02-17T15:11:51;1.23;;;1.10;;
803;SDS011;25687;49.976;8.240;2023-02-17T15:14:17;0.90;;;0.90;;
803;SDS011;25687;49.976;8.240;2023-02-17T15:16:44;1.30;;;1.20;;
803;SDS011;25687;49.976;8.240;2023-02-17T15:19:11;1.40;;;1.30;;
803;SDS011;25687;49.976;8.240;2023-02-17T15:21:38;1.67;;;0.90;;
803;SDS011;25687;49.976;8.240;2023-02-17T15:24:29;1.90;;;1.07;;
803;SDS011;25687;49.976;8.240;2023-02-17T15:26:55;0.67;;;0.63;;
803;SDS011;25687;49.976;8.240;2023-02-17T15:29:21;1.20;;;1.10;;
803;SDS011;25687;49.976;8.240;2023-02-17T15:31:48;0.90;;;0.90;;
803;SDS011;25687;49.976;8.240;2023-02-17T15:34:16;1.00;;;0.70;;
803;SDS011;25687;49.976;8.240;2023-02-17T15:36:44;1.60;;;1.50;;
803;SDS011;25687;49.976;8.240;2023-02-17T15:39:10;1.27;;;0.90;;
803;SDS011;25687;49.976;8.240;2023-02-17T15:41:40;2.70;;;0.90;;
803;SDS011;25687;49.976;8.240;2023-02-17T15:44:10;1.30;;;1.20;;
803;SDS011;25687;49.976;8.240;2023-02-17T15:46:39;1.00;;;0.90;;
803;SDS011;25687;49.976;8.240;2023-02-17T15:49:04;2.20;;;1.00;;
803;SDS011;25687;49.976;8.240;2023-02-17T15:51:30;1.17;;;1.00;;
803;SDS011;25687;49.976;8.240;2023-02-17T15:53:55;1.57;;;1.10;;
803;SDS011;25687;49.976;8.240;2023-02-17T15:56:25;2.90;;;1.40;;
803;SDS011;25687;49.976;8.240;2023-02-17T15:58:53;1.10;;;0.80;;
803;SDS011;25687;49.976;8.240;2023-02-17T16:01:26;1.53;;;1.43;;
803;SDS011;25687;49.976;8.240;2023-02-17T16:03:54;1.20;;;1.10;;
803;SDS011;25687;49.976;8.240;2023-02-17T16:06:21;1.40;;;1.30;;
803;SDS011;25687;49.976;8.240;2023-02-17T16:08:47;1.20;;;1.10;;
803;SDS011;25687;49.976;8.240;2023-02-17T16:11:12;1.33;;;1.23;;
803;SDS011;25687;49.976;8.240;2023-02-17T16:13:39;2.13;;;1.50;;
803;SDS011;25687;49.976;8.240;2023-02-17T16:16:08;1.07;;;1.03;;
803;SDS011;25687;49.976;8.240;2023-02-17T16:18:39;1.20;;;1.10;;
803;SDS011;25687;49.976;8.240;2023-02-17T16:21:04;1.20;;;0.97;;
803;SDS011;25687;49.976;8.240;2023-02-17T16:23:30;1.10;;;1.10;;
803;SDS011;25687;49.976;8.240;2023-02-17T16:25:55;1.37;;;0.83;;
803;SDS011;25687;49.976;8.240;2023-02-17T16:28:20;1.30;;;1.20;;
803;SDS011;25687;49.976;8.240;2023-02-17T16:30:46;1.27;;;1.17;;
803;SDS011;25687;49.976;8.240;2023-02-17T16:33:16;3.03;;;0.80;;
803;SDS011;25687;49.976;8.240;2023-02-17T16:35:42;1.07;;;0.90;;
803;SDS011;25687;49.976;8.240;2023-02-17T16:38:17;1.20;;;1.10;;
803;SDS011;25687;49.976;8.240;2023-02-17T16:40:46;1.20;;;1.10;;
803;SDS011;25687;49.976;8.240;2023-02-17T16:43:13;1.00;;;1.00;;
803;SDS011;25687;49.976;8.240;2023-02-17T16:45:51;0.97;;;0.97;;
803;SDS011;25687;49.976;8.240;2023-02-17T16:48:20;1.80;;;1.20;;
803;SDS011;25687;49.976;8.240;2023-02-17T16:50:47;1.23;;;1.10;;
803;SDS011;25687;49.976;8.240;2023-02-17T16:53:12;1.00;;;1.00;;
803;SDS011;25687;49.976;8.240;2023-02-17T16:55:39;1.60;;;0.93;;
803;SDS011;25687;49.976;8.240;2023-02-17T16:58:10;1.70;;;1.10;;